Huvudsida
METAR-TAF:

METAR-TAF

Flygplatser :

Naval Station Rota

Rota, Spanien

latitud: 36-39N, longitud: 006-21W, höjd: 26 m

Aktuellt väderrapport

Denna rapport gjordes för 1 timme och 5 minuter sedan, klockan 22:00 UTC
Vind 5 kt från ost
Temperatur 15°C
Fuktighet 88%
Tryck 1014 hPa
Sikt 10 km eller mer
Inga moln under 1 500 m eller inga cumulonimbus

METAR: LERT 162200Z 08005KT CAVOK 15/13 Q1014 NOSIG

Tid: 00:05 (23:05 UTC)

Väderprognos

Denna rapport gjordes för 3 timmar och 5 minuter sedan, klockan 20:00 UTC
Prognos gäller från 16 kl. 21 UTC till 17 kl. 06 UTC
Vind 8 kt från ost/sydost
Sikt 10 km eller mer
Få moln på en höjd av 3500 ft

TAF: LERT 162000Z 1621/1706 11008KT 9999 FEW035

Aktuella väderrapporter och prognoser från 4000 flygplatser (METAR- och TAF-rapporter).

De tillgängliga stationerna syns som gula och röda prickar på kartan.

För musen över prickarna för att se namnen på stationerna.

Klicka sedan för att få väderrapporter och prognoser.

För att ändra kartan: Klicka på de gröna knapparna med ett svart kors på för att zooma in; den gröna knappen med ett streck på för att zooma ut; eller på de gröna pilarna för angränsande kartor.


METAR-TAF: